sensor_id;sensor_type;location;lat;lon;timestamp;pressure;altitude;pressure_sealevel;temperature;humidity
14117;BME280;7137;51.436;6.544;2023-06-04T00:00:03;101652.41;;;14.27;50.67
14117;BME280;7137;51.436;6.544;2023-06-04T00:03:06;101651.56;;;14.27;50.50
14117;BME280;7137;51.436;6.544;2023-06-04T00:06:08;101648.00;;;14.28;50.30
14117;BME280;7137;51.436;6.544;2023-06-04T00:09:10;101647.38;;;14.20;50.98
14117;BME280;7137;51.436;6.544;2023-06-04T00:12:11;101650.22;;;14.14;51.06
14117;BME280;7137;51.436;6.544;2023-06-04T00:15:14;101644.19;;;14.10;52.54
14117;BME280;7137;51.436;6.544;2023-06-04T00:18:18;101649.72;;;14.01;52.49
14117;BME280;7137;51.436;6.544;2023-06-04T00:21:19;101649.25;;;13.88;54.12
14117;BME280;7137;51.436;6.544;2023-06-04T00:24:21;101648.69;;;13.77;53.82
14117;BME280;7137;51.436;6.544;2023-06-04T00:27:23;101653.38;;;13.68;55.10
14117;BME280;7137;51.436;6.544;2023-06-04T00:30:24;101647.31;;;13.64;56.08
14117;BME280;7137;51.436;6.544;2023-06-04T00:33:27;101642.13;;;13.62;56.76
14117;BME280;7137;51.436;6.544;2023-06-04T00:36:28;101651.44;;;13.43;56.01
14117;BME280;7137;51.436;6.544;2023-06-04T00:39:30;101652.41;;;13.41;57.75
14117;BME280;7137;51.436;6.544;2023-06-04T00:42:32;101645.00;;;13.55;56.21
14117;BME280;7137;51.436;6.544;2023-06-04T00:45:33;101655.78;;;13.44;57.67
14117;BME280;7137;51.436;6.544;2023-06-04T00:48:36;101650.63;;;13.41;57.81
14117;BME280;7137;51.436;6.544;2023-06-04T00:51:38;101646.63;;;13.28;60.46
14117;BME280;7137;51.436;6.544;2023-06-04T00:54:40;101645.66;;;13.30;59.57
14117;BME280;7137;51.436;6.544;2023-06-04T00:57:42;101646.88;;;13.17;60.11
14117;BME280;7137;51.436;6.544;2023-06-04T01:00:44;101646.09;;;13.14;61.21
14117;BME280;7137;51.436;6.544;2023-06-04T01:03:49;101639.38;;;13.03;61.54
14117;BME280;7137;51.436;6.544;2023-06-04T01:06:56;101643.94;;;12.97;62.47
14117;BME280;7137;51.436;6.544;2023-06-04T01:09:58;101653.31;;;13.05;63.32
14117;BME280;7137;51.436;6.544;2023-06-04T01:13:00;101654.38;;;12.98;63.16
14117;BME280;7137;51.436;6.544;2023-06-04T01:16:02;101647.16;;;13.06;63.66
14117;BME280;7137;51.436;6.544;2023-06-04T01:19:11;101646.66;;;12.92;63.33
14117;BME280;7137;51.436;6.544;2023-06-04T01:22:28;101657.16;;;12.92;64.09
14117;BME280;7137;51.436;6.544;2023-06-04T01:25:33;101654.47;;;12.94;64.42
14117;BME280;7137;51.436;6.544;2023-06-04T01:28:39;101649.13;;;12.98;64.52
14117;BME280;7137;51.436;6.544;2023-06-04T01:31:41;101650.09;;;12.96;64.72
14117;BME280;7137;51.436;6.544;2023-06-04T01:34:45;101667.06;;;12.81;66.17
14117;BME280;7137;51.436;6.544;2023-06-04T01:37:47;101654.63;;;12.89;65.86
14117;BME280;7137;51.436;6.544;2023-06-04T01:40:49;101648.56;;;12.87;65.96
14117;BME280;7137;51.436;6.544;2023-06-04T01:43:51;101656.06;;;12.67;67.41
14117;BME280;7137;51.436;6.544;2023-06-04T01:46:52;101650.84;;;12.67;67.31
14117;BME280;7137;51.436;6.544;2023-06-04T01:49:55;101652.03;;;12.54;68.41
14117;BME280;7137;51.436;6.544;2023-06-04T01:52:57;101649.28;;;12.58;69.61
14117;BME280;7137;51.436;6.544;2023-06-04T01:55:58;101641.59;;;12.51;68.88
14117;BME280;7137;51.436;6.544;2023-06-04T01:59:01;101638.25;;;12.45;70.60
14117;BME280;7137;51.436;6.544;2023-06-04T02:02:04;101641.88;;;12.38;70.15
14117;BME280;7137;51.436;6.544;2023-06-04T02:05:08;101640.34;;;12.31;70.49
14117;BME280;7137;51.436;6.544;2023-06-04T02:08:10;101648.81;;;12.42;70.28
14117;BME280;7137;51.436;6.544;2023-06-04T02:11:12;101652.97;;;12.49;69.78
14117;BME280;7137;51.436;6.544;2023-06-04T02:14:14;101657.38;;;12.49;70.06
14117;BME280;7137;51.436;6.544;2023-06-04T02:17:15;101659.03;;;12.52;70.08
14117;BME280;7137;51.436;6.544;2023-06-04T02:20:18;101664.19;;;12.56;71.06
14117;BME280;7137;51.436;6.544;2023-06-04T02:23:20;101668.88;;;12.43;71.05
14117;BME280;7137;51.436;6.544;2023-06-04T02:26:22;101656.59;;;12.45;70.67
14117;BME280;7137;51.436;6.544;2023-06-04T02:29:25;101660.56;;;12.26;72.13
14117;BME280;7137;51.436;6.544;2023-06-04T02:32:27;101656.59;;;12.07;73.05
14117;BME280;7137;51.436;6.544;2023-06-04T02:35:30;101660.47;;;11.91;73.23
14117;BME280;7137;51.436;6.544;2023-06-04T02:38:32;101659.94;;;11.73;74.65
14117;BME280;7137;51.436;6.544;2023-06-04T02:41:33;101660.00;;;11.70;75.52
14117;BME280;7137;51.436;6.544;2023-06-04T02:44:35;101654.81;;;11.67;75.56
14117;BME280;7137;51.436;6.544;2023-06-04T02:47:37;101667.81;;;11.72;76.49
14117;BME280;7137;51.436;6.544;2023-06-04T02:50:40;101667.94;;;11.66;76.12
14117;BME280;7137;51.436;6.544;2023-06-04T02:53:42;101664.50;;;11.64;76.27
14117;BME280;7137;51.436;6.544;2023-06-04T02:56:45;101666.97;;;11.71;76.96
14117;BME280;7137;51.436;6.544;2023-06-04T02:59:49;101668.56;;;11.77;75.55
14117;BME280;7137;51.436;6.544;2023-06-04T03:02:52;101669.63;;;11.68;76.51
14117;BME280;7137;51.436;6.544;2023-06-04T03:06:03;101667.94;;;11.66;76.22
14117;BME280;7137;51.436;6.544;2023-06-04T03:09:05;101668.84;;;11.63;77.12
14117;BME280;7137;51.436;6.544;2023-06-04T03:12:07;101672.47;;;11.57;77.91
14117;BME280;7137;51.436;6.544;2023-06-04T03:15:09;101669.78;;;11.60;78.16
14117;BME280;7137;51.436;6.544;2023-06-04T03:18:11;101668.97;;;11.58;78.42
14117;BME280;7137;51.436;6.544;2023-06-04T03:21:14;101663.00;;;11.50;78.60
14117;BME280;7137;51.436;6.544;2023-06-04T03:24:15;101658.34;;;11.65;78.28
14117;BME280;7137;51.436;6.544;2023-06-04T03:27:17;101656.72;;;11.60;78.15
14117;BME280;7137;51.436;6.544;2023-06-04T03:30:19;101655.63;;;11.71;77.86
14117;BME280;7137;51.436;6.544;2023-06-04T03:33:20;101661.75;;;11.68;78.25
14117;BME280;7137;51.436;6.544;2023-06-04T03:36:23;101662.97;;;11.52;78.58
14117;BME280;7137;51.436;6.544;2023-06-04T03:39:31;101662.03;;;11.56;78.97
14117;BME280;7137;51.436;6.544;2023-06-04T03:42:33;101661.13;;;11.58;78.54
14117;BME280;7137;51.436;6.544;2023-06-04T03:45:34;101661.94;;;11.60;78.65
14117;BME280;7137;51.436;6.544;2023-06-04T03:48:36;101665.59;;;11.52;78.61
14117;BME280;7137;51.436;6.544;2023-06-04T03:51:39;101662.13;;;11.51;79.12
14117;BME280;7137;51.436;6.544;2023-06-04T03:54:41;101663.81;;;11.54;79.30
14117;BME280;7137;51.436;6.544;2023-06-04T03:57:42;101662.00;;;11.57;78.34
14117;BME280;7137;51.436;6.544;2023-06-04T04:00:44;101664.00;;;11.45;79.68
14117;BME280;7137;51.436;6.544;2023-06-04T04:03:45;101664.88;;;11.45;79.64
14117;BME280;7137;51.436;6.544;2023-06-04T04:06:50;101665.56;;;11.55;79.62
14117;BME280;7137;51.436;6.544;2023-06-04T04:09:51;101660.84;;;11.72;79.37
14117;BME280;7137;51.436;6.544;2023-06-04T04:12:53;101657.31;;;11.73;78.84
14117;BME280;7137;51.436;6.544;2023-06-04T04:15:57;101658.06;;;11.78;78.66
14117;BME280;7137;51.436;6.544;2023-06-04T04:18:59;101664.28;;;11.74;78.91
14117;BME280;7137;51.436;6.544;2023-06-04T04:22:02;101666.75;;;11.83;78.02
14117;BME280;7137;51.436;6.544;2023-06-04T04:25:04;101664.28;;;11.74;79.29
14117;BME280;7137;51.436;6.544;2023-06-04T04:28:05;101665.31;;;11.66;79.14
14117;BME280;7137;51.436;6.544;2023-06-04T04:31:07;101666.88;;;11.74;79.27
14117;BME280;7137;51.436;6.544;2023-06-04T04:34:09;101667.69;;;11.78;78.91
14117;BME280;7137;51.436;6.544;2023-06-04T04:37:12;101665.81;;;11.86;78.77
14117;BME280;7137;51.436;6.544;2023-06-04T04:40:14;101670.13;;;11.88;78.67
14117;BME280;7137;51.436;6.544;2023-06-04T04:43:15;101665.59;;;11.95;78.62
14117;BME280;7137;51.436;6.544;2023-06-04T04:46:17;101672.63;;;11.93;79.07
14117;BME280;7137;51.436;6.544;2023-06-04T04:49:18;101670.78;;;11.98;77.97
14117;BME280;7137;51.436;6.544;2023-06-04T04:52:21;101673.13;;;12.09;78.40
14117;BME280;7137;51.436;6.544;2023-06-04T04:55:23;101677.16;;;12.24;77.31
14117;BME280;7137;51.436;6.544;2023-06-04T04:58:24;101670.78;;;12.35;76.64
14117;BME280;7137;51.436;6.544;2023-06-04T05:01:26;101678.56;;;12.40;77.36
14117;BME280;7137;51.436;6.544;2023-06-04T05:04:27;101674.22;;;12.39;76.94
14117;BME280;7137;51.436;6.544;2023-06-04T05:07:30;101679.19;;;12.49;75.98
14117;BME280;7137;51.436;6.544;2023-06-04T05:10:33;101685.03;;;12.61;75.17
14117;BME280;7137;51.436;6.544;2023-06-04T05:13:36;101685.69;;;12.70;75.98
14117;BME280;7137;51.436;6.544;2023-06-04T05:16:37;101681.19;;;12.75;75.56
14117;BME280;7137;51.436;6.544;2023-06-04T05:19:41;101680.03;;;12.87;73.65
14117;BME280;7137;51.436;6.544;2023-06-04T05:22:44;101673.59;;;12.99;73.47
14117;BME280;7137;51.436;6.544;2023-06-04T05:25:45;101676.81;;;13.08;72.67
14117;BME280;7137;51.436;6.544;2023-06-04T05:28:49;101692.56;;;13.43;72.13
14117;BME280;7137;51.436;6.544;2023-06-04T05:31:50;101684.94;;;13.66;72.20
14117;BME280;7137;51.436;6.544;2023-06-04T05:34:52;101686.53;;;14.57;67.29
14117;BME280;7137;51.436;6.544;2023-06-04T05:37:58;101694.34;;;16.75;61.46
14117;BME280;7137;51.436;6.544;2023-06-04T05:41:00;101682.06;;;17.56;55.97
14117;BME280;7137;51.436;6.544;2023-06-04T05:44:02;101690.53;;;20.40;47.80
14117;BME280;7137;51.436;6.544;2023-06-04T05:47:04;101693.88;;;19.81;49.29
14117;BME280;7137;51.436;6.544;2023-06-04T05:50:07;101701.88;;;19.46;50.62
14117;BME280;7137;51.436;6.544;2023-06-04T05:53:10;101695.66;;;21.63;45.63
14117;BME280;7137;51.436;6.544;2023-06-04T05:56:11;101695.34;;;21.25;45.26
14117;BME280;7137;51.436;6.544;2023-06-04T05:59:13;101709.13;;;22.03;43.28
14117;BME280;7137;51.436;6.544;2023-06-04T06:02:15;101711.03;;;22.01;42.32
14117;BME280;7137;51.436;6.544;2023-06-04T06:05:18;101699.25;;;22.73;42.08
14117;BME280;7137;51.436;6.544;2023-06-04T06:08:21;101715.50;;;21.86;41.98
14117;BME280;7137;51.436;6.544;2023-06-04T06:11:23;101718.31;;;24.93;36.91
14117;BME280;7137;51.436;6.544;2023-06-04T06:14:27;101709.81;;;25.45;35.22
14117;BME280;7137;51.436;6.544;2023-06-04T06:17:28;101724.03;;;25.00;34.98
14117;BME280;7137;51.436;6.544;2023-06-04T06:20:30;101716.25;;;23.63;37.00
14117;BME280;7137;51.436;6.544;2023-06-04T06:23:33;101727.72;;;25.67;33.96
14117;BME280;7137;51.436;6.544;2023-06-04T06:26:35;101729.13;;;27.14;31.55
14117;BME280;7137;51.436;6.544;2023-06-04T06:29:37;101726.19;;;25.19;34.28
14117;BME280;7137;51.436;6.544;2023-06-04T06:32:39;101718.38;;;25.84;32.75
14117;BME280;7137;51.436;6.544;2023-06-04T06:35:41;101729.00;;;26.83;31.68
14117;BME280;7137;51.436;6.544;2023-06-04T06:38:45;101725.88;;;24.75;34.36
14117;BME280;7137;51.436;6.544;2023-06-04T06:41:46;101726.03;;;23.88;35.95
14117;BME280;7137;51.436;6.544;2023-06-04T06:44:48;101717.06;;;25.10;32.75
14117;BME280;7137;51.436;6.544;2023-06-04T06:47:50;101725.91;;;26.01;33.00
14117;BME280;7137;51.436;6.544;2023-06-04T06:50:53;101729.69;;;26.97;31.13
14117;BME280;7137;51.436;6.544;2023-06-04T06:53:55;101742.09;;;29.29;29.20
14117;BME280;7137;51.436;6.544;2023-06-04T06:56:57;101737.50;;;30.68;27.11
14117;BME280;7137;51.436;6.544;2023-06-04T06:59:59;101736.81;;;27.18;29.77
14117;BME280;7137;51.436;6.544;2023-06-04T07:03:00;101737.03;;;30.91;27.34
14117;BME280;7137;51.436;6.544;2023-06-04T07:06:03;101742.09;;;29.85;26.84
14117;BME280;7137;51.436;6.544;2023-06-04T07:09:06;101737.84;;;31.27;26.56
14117;BME280;7137;51.436;6.544;2023-06-04T07:12:08;101741.09;;;28.62;29.63
14117;BME280;7137;51.436;6.544;2023-06-04T07:15:10;101744.94;;;29.08;27.94
14117;BME280;7137;51.436;6.544;2023-06-04T07:18:11;101751.06;;;32.24;25.42
14117;BME280;7137;51.436;6.544;2023-06-04T07:21:13;101755.50;;;30.05;28.05
14117;BME280;7137;51.436;6.544;2023-06-04T07:24:16;101746.75;;;32.05;24.84
14117;BME280;7137;51.436;6.544;2023-06-04T07:27:18;101757.63;;;30.01;26.78
14117;BME280;7137;51.436;6.544;2023-06-04T07:30:22;101756.13;;;33.10;23.76
14117;BME280;7137;51.436;6.544;2023-06-04T07:33:24;101748.19;;;31.31;25.58
14117;BME280;7137;51.436;6.544;2023-06-04T07:36:25;101744.25;;;29.72;26.86
14117;BME280;7137;51.436;6.544;2023-06-04T07:39:28;101746.34;;;32.34;24.41
14117;BME280;7137;51.436;6.544;2023-06-04T07:42:30;101751.75;;;29.03;27.71
14117;BME280;7137;51.436;6.544;2023-06-04T07:45:31;101745.78;;;30.12;27.36
14117;BME280;7137;51.436;6.544;2023-06-04T07:48:33;101741.56;;;30.09;26.82
14117;BME280;7137;51.436;6.544;2023-06-04T07:51:34;101742.19;;;31.20;25.93
14117;BME280;7137;51.436;6.544;2023-06-04T07:54:38;101746.28;;;27.43;29.13
14117;BME280;7137;51.436;6.544;2023-06-04T07:57:41;101735.91;;;26.97;30.80
14117;BME280;7137;51.436;6.544;2023-06-04T08:00:43;101736.41;;;28.45;29.26
14117;BME280;7137;51.436;6.544;2023-06-04T08:03:44;101740.34;;;28.41;29.74
14117;BME280;7137;51.436;6.544;2023-06-04T08:06:46;101740.25;;;31.12;25.61
14117;BME280;7137;51.436;6.544;2023-06-04T08:09:49;101743.56;;;32.18;24.13
14117;BME280;7137;51.436;6.544;2023-06-04T08:12:51;101739.16;;;31.23;25.41
14117;BME280;7137;51.436;6.544;2023-06-04T08:15:52;101744.31;;;31.16;25.80
14117;BME280;7137;51.436;6.544;2023-06-04T08:18:54;101741.94;;;29.87;26.34
14117;BME280;7137;51.436;6.544;2023-06-04T08:21:55;101744.44;;;29.42;27.27
14117;BME280;7137;51.436;6.544;2023-06-04T08:24:58;101752.84;;;34.50;21.33
14117;BME280;7137;51.436;6.544;2023-06-04T08:28:00;101753.19;;;34.47;22.02
14117;BME280;7137;51.436;6.544;2023-06-04T08:31:01;101754.28;;;36.54;20.26
14117;BME280;7137;51.436;6.544;2023-06-04T08:34:03;101756.91;;;33.59;22.53
14117;BME280;7137;51.436;6.544;2023-06-04T08:37:06;101752.31;;;30.64;25.66
14117;BME280;7137;51.436;6.544;2023-06-04T08:40:10;101747.44;;;33.31;21.49
14117;BME280;7137;51.436;6.544;2023-06-04T08:43:13;101741.19;;;30.67;23.84
14117;BME280;7137;51.436;6.544;2023-06-04T08:46:17;101741.06;;;28.33;25.53
14117;BME280;7137;51.436;6.544;2023-06-04T08:49:19;101739.28;;;29.77;25.14
14117;BME280;7137;51.436;6.544;2023-06-04T08:52:23;101738.00;;;28.96;25.85
14117;BME280;7137;51.436;6.544;2023-06-04T08:55:26;101733.16;;;29.85;25.45
14117;BME280;7137;51.436;6.544;2023-06-04T08:58:31;101738.69;;;27.69;27.83
14117;BME280;7137;51.436;6.544;2023-06-04T09:01:34;101739.91;;;28.26;27.60
14117;BME280;7137;51.436;6.544;2023-06-04T09:04:39;101739.41;;;26.22;28.49
14117;BME280;7137;51.436;6.544;2023-06-04T09:07:41;101740.72;;;29.72;25.11
14117;BME280;7137;51.436;6.544;2023-06-04T09:10:46;101739.28;;;30.78;24.30
14117;BME280;7137;51.436;6.544;2023-06-04T09:13:52;101732.84;;;30.96;23.05
14117;BME280;7137;51.436;6.544;2023-06-04T09:16:56;101735.09;;;29.46;24.42
14117;BME280;7137;51.436;6.544;2023-06-04T09:19:59;101731.34;;;28.02;26.23
14117;BME280;7137;51.436;6.544;2023-06-04T09:23:00;101733.25;;;27.60;24.60
14117;BME280;7137;51.436;6.544;2023-06-04T09:26:10;101733.41;;;27.98;24.11
14117;BME280;7137;51.436;6.544;2023-06-04T09:29:12;101747.75;;;32.38;19.66
14117;BME280;7137;51.436;6.544;2023-06-04T09:32:13;101735.44;;;28.65;22.24
14117;BME280;7137;51.436;6.544;2023-06-04T09:35:16;101743.19;;;32.39;19.31
14117;BME280;7137;51.436;6.544;2023-06-04T09:38:18;101740.25;;;29.10;22.57
14117;BME280;7137;51.436;6.544;2023-06-04T09:41:21;101743.81;;;30.77;20.83
14117;BME280;7137;51.436;6.544;2023-06-04T09:44:22;101745.59;;;30.68;19.15
14117;BME280;7137;51.436;6.544;2023-06-04T09:47:24;101744.88;;;32.40;19.18
14117;BME280;7137;51.436;6.544;2023-06-04T09:50:30;101736.38;;;31.15;19.23
14117;BME280;7137;51.436;6.544;2023-06-04T09:53:32;101735.97;;;30.21;22.00
14117;BME280;7137;51.436;6.544;2023-06-04T09:56:40;101738.91;;;29.53;21.24
14117;BME280;7137;51.436;6.544;2023-06-04T09:59:44;101738.28;;;28.93;22.18
14117;BME280;7137;51.436;6.544;2023-06-04T10:02:46;101733.88;;;29.11;22.46
14117;BME280;7137;51.436;6.544;2023-06-04T10:05:49;101734.94;;;29.94;20.22
14117;BME280;7137;51.436;6.544;2023-06-04T10:08:52;101727.16;;;29.54;22.35
14117;BME280;7137;51.436;6.544;2023-06-04T10:11:59;101728.94;;;27.47;24.64
14117;BME280;7137;51.436;6.544;2023-06-04T10:15:05;101733.91;;;25.34;25.83
14117;BME280;7137;51.436;6.544;2023-06-04T10:18:09;101726.63;;;27.43;24.25
14117;BME280;7137;51.436;6.544;2023-06-04T10:21:13;101728.50;;;28.44;22.90
14117;BME280;7137;51.436;6.544;2023-06-04T10:24:15;101732.78;;;28.25;22.50
14117;BME280;7137;51.436;6.544;2023-06-04T10:27:19;101728.19;;;30.35;20.89
14117;BME280;7137;51.436;6.544;2023-06-04T10:30:22;101725.50;;;30.35;21.18
14117;BME280;7137;51.436;6.544;2023-06-04T10:33:24;101714.16;;;30.14;20.09
14117;BME280;7137;51.436;6.544;2023-06-04T10:36:26;101722.84;;;28.95;21.79
14117;BME280;7137;51.436;6.544;2023-06-04T10:39:30;101729.88;;;28.38;21.92
14117;BME280;7137;51.436;6.544;2023-06-04T10:42:41;101723.03;;;27.84;25.00
14117;BME280;7137;51.436;6.544;2023-06-04T10:45:43;101714.84;;;27.86;23.55
14117;BME280;7137;51.436;6.544;2023-06-04T10:48:46;101714.88;;;27.34;23.66
14117;BME280;7137;51.436;6.544;2023-06-04T10:51:47;101718.50;;;27.03;23.50
14117;BME280;7137;51.436;6.544;2023-06-04T10:54:49;101709.50;;;25.95;24.20
14117;BME280;7137;51.436;6.544;2023-06-04T10:57:59;101714.44;;;24.73;24.87
14117;BME280;7137;51.436;6.544;2023-06-04T11:01:02;101716.38;;;24.95;25.29
14117;BME280;7137;51.436;6.544;2023-06-04T11:04:05;101700.72;;;24.43;25.89
14117;BME280;7137;51.436;6.544;2023-06-04T11:07:07;101718.06;;;24.37;25.90
14117;BME280;7137;51.436;6.544;2023-06-04T11:10:10;101715.41;;;24.72;26.97
14117;BME280;7137;51.436;6.544;2023-06-04T11:13:14;101706.72;;;24.81;26.02
14117;BME280;7137;51.436;6.544;2023-06-04T11:16:16;101715.53;;;24.95;25.81
14117;BME280;7137;51.436;6.544;2023-06-04T11:19:18;101695.44;;;25.24;25.76
14117;BME280;7137;51.436;6.544;2023-06-04T11:22:20;101696.25;;;25.82;24.63
14117;BME280;7137;51.436;6.544;2023-06-04T11:25:23;101686.84;;;25.54;24.21
14117;BME280;7137;51.436;6.544;2023-06-04T11:28:26;101696.88;;;25.17;24.61
14117;BME280;7137;51.436;6.544;2023-06-04T11:31:28;101685.00;;;25.43;25.05
14117;BME280;7137;51.436;6.544;2023-06-04T11:34:30;101689.91;;;24.68;25.79
14117;BME280;7137;51.436;6.544;2023-06-04T11:37:32;101688.88;;;24.82;24.70
14117;BME280;7137;51.436;6.544;2023-06-04T11:40:34;101689.72;;;24.82;26.25
14117;BME280;7137;51.436;6.544;2023-06-04T11:43:37;101693.44;;;24.69;26.22
14117;BME280;7137;51.436;6.544;2023-06-04T11:46:40;101690.63;;;24.70;25.21
14117;BME280;7137;51.436;6.544;2023-06-04T11:49:41;101686.84;;;24.97;25.77
14117;BME280;7137;51.436;6.544;2023-06-04T11:52:44;101680.59;;;24.85;26.24
14117;BME280;7137;51.436;6.544;2023-06-04T11:55:45;101689.84;;;25.27;26.41
14117;BME280;7137;51.436;6.544;2023-06-04T11:58:48;101688.31;;;24.42;25.32
14117;BME280;7137;51.436;6.544;2023-06-04T12:01:50;101680.09;;;24.80;26.02
14117;BME280;7137;51.436;6.544;2023-06-04T12:04:54;101683.50;;;24.82;25.68
14117;BME280;7137;51.436;6.544;2023-06-04T12:08:04;101682.63;;;24.70;25.45
14117;BME280;7137;51.436;6.544;2023-06-04T12:11:06;101678.84;;;24.25;26.13
14117;BME280;7137;51.436;6.544;2023-06-04T12:14:16;101676.31;;;24.47;26.18
14117;BME280;7137;51.436;6.544;2023-06-04T12:17:18;101674.72;;;24.45;25.19
14117;BME280;7137;51.436;6.544;2023-06-04T12:20:32;101673.66;;;24.82;26.05
14117;BME280;7137;51.436;6.544;2023-06-04T12:23:34;101669.09;;;24.96;26.86
14117;BME280;7137;51.436;6.544;2023-06-04T12:26:36;101666.66;;;24.93;26.40
14117;BME280;7137;51.436;6.544;2023-06-04T12:29:43;101669.63;;;24.66;25.30
14117;BME280;7137;51.436;6.544;2023-06-04T12:32:55;101665.19;;;24.30;24.60
14117;BME280;7137;51.436;6.544;2023-06-04T12:35:56;101668.09;;;24.14;25.82
14117;BME280;7137;51.436;6.544;2023-06-04T12:38:59;101672.91;;;24.21;25.98
14117;BME280;7137;51.436;6.544;2023-06-04T12:42:01;101673.78;;;24.09;26.73
14117;BME280;7137;51.436;6.544;2023-06-04T12:45:06;101673.75;;;24.22;26.06
14117;BME280;7137;51.436;6.544;2023-06-04T12:48:07;101661.44;;;24.19;24.71
14117;BME280;7137;51.436;6.544;2023-06-04T12:51:09;101668.13;;;24.62;25.88
14117;BME280;7137;51.436;6.544;2023-06-04T12:54:11;101665.13;;;24.66;25.28
14117;BME280;7137;51.436;6.544;2023-06-04T12:57:13;101664.09;;;24.56;25.32
14117;BME280;7137;51.436;6.544;2023-06-04T13:00:16;101662.66;;;24.63;25.70
14117;BME280;7137;51.436;6.544;2023-06-04T13:03:17;101652.31;;;24.11;24.41
14117;BME280;7137;51.436;6.544;2023-06-04T13:06:19;101653.53;;;24.18;25.70
14117;BME280;7137;51.436;6.544;2023-06-04T13:09:20;101657.38;;;24.26;24.81
14117;BME280;7137;51.436;6.544;2023-06-04T13:12:23;101648.34;;;24.64;26.18
14117;BME280;7137;51.436;6.544;2023-06-04T13:15:26;101646.44;;;24.77;25.27
14117;BME280;7137;51.436;6.544;2023-06-04T13:18:27;101651.94;;;24.52;25.35
14117;BME280;7137;51.436;6.544;2023-06-04T13:21:29;101662.94;;;24.47;25.17
14117;BME280;7137;51.436;6.544;2023-06-04T13:24:30;101645.94;;;24.72;25.55
14117;BME280;7137;51.436;6.544;2023-06-04T13:27:32;101647.94;;;24.93;26.00
14117;BME280;7137;51.436;6.544;2023-06-04T13:30:36;101653.94;;;24.72;24.90
14117;BME280;7137;51.436;6.544;2023-06-04T13:33:38;101649.13;;;24.77;26.74
14117;BME280;7137;51.436;6.544;2023-06-04T13:36:39;101649.00;;;24.79;26.83
14117;BME280;7137;51.436;6.544;2023-06-04T13:39:41;101653.78;;;24.63;26.67
14117;BME280;7137;51.436;6.544;2023-06-04T13:42:42;101648.75;;;24.47;25.68
14117;BME280;7137;51.436;6.544;2023-06-04T13:45:45;101645.69;;;24.64;26.43
14117;BME280;7137;51.436;6.544;2023-06-04T13:48:47;101652.00;;;24.74;26.34
14117;BME280;7137;51.436;6.544;2023-06-04T13:51:48;101643.94;;;24.52;27.30
14117;BME280;7137;51.436;6.544;2023-06-04T13:54:50;101636.16;;;24.60;26.11
14117;BME280;7137;51.436;6.544;2023-06-04T13:57:51;101638.97;;;24.58;26.80
14117;BME280;7137;51.436;6.544;2023-06-04T14:00:54;101629.66;;;24.64;26.55
14117;BME280;7137;51.436;6.544;2023-06-04T14:03:56;101633.16;;;24.65;27.54
14117;BME280;7137;51.436;6.544;2023-06-04T14:06:58;101621.66;;;24.86;25.64
14117;BME280;7137;51.436;6.544;2023-06-04T14:10:00;101619.94;;;25.09;26.35
14117;BME280;7137;51.436;6.544;2023-06-04T14:13:02;101616.28;;;25.10;26.59
14117;BME280;7137;51.436;6.544;2023-06-04T14:16:05;101623.31;;;24.65;25.91
14117;BME280;7137;51.436;6.544;2023-06-04T14:19:06;101623.47;;;24.40;26.39
14117;BME280;7137;51.436;6.544;2023-06-04T14:22:09;101616.97;;;24.31;26.42
14117;BME280;7137;51.436;6.544;2023-06-04T14:25:11;101610.59;;;24.45;25.92
14117;BME280;7137;51.436;6.544;2023-06-04T14:28:13;101614.66;;;24.62;26.34
14117;BME280;7137;51.436;6.544;2023-06-04T14:31:16;101604.75;;;24.75;27.47
14117;BME280;7137;51.436;6.544;2023-06-04T14:34:18;101615.22;;;24.78;25.57
14117;BME280;7137;51.436;6.544;2023-06-04T14:37:20;101615.44;;;24.64;26.50
14117;BME280;7137;51.436;6.544;2023-06-04T14:40:21;101617.00;;;24.66;26.58
14117;BME280;7137;51.436;6.544;2023-06-04T14:43:23;101609.75;;;24.91;26.23
14117;BME280;7137;51.436;6.544;2023-06-04T14:46:27;101611.50;;;24.92;28.05
14117;BME280;7137;51.436;6.544;2023-06-04T14:49:28;101613.41;;;24.90;27.19
14117;BME280;7137;51.436;6.544;2023-06-04T14:52:30;101598.00;;;24.93;26.61
14117;BME280;7137;51.436;6.544;2023-06-04T14:55:31;101600.59;;;25.28;26.62
14117;BME280;7137;51.436;6.544;2023-06-04T14:58:33;101607.50;;;24.62;26.45
14117;BME280;7137;51.436;6.544;2023-06-04T15:01:36;101606.84;;;24.82;26.21
14117;BME280;7137;51.436;6.544;2023-06-04T15:04:38;101599.78;;;24.81;26.26
14117;BME280;7137;51.436;6.544;2023-06-04T15:07:42;101597.44;;;25.12;26.10
14117;BME280;7137;51.436;6.544;2023-06-04T15:10:44;101590.38;;;25.33;26.15
14117;BME280;7137;51.436;6.544;2023-06-04T15:13:45;101583.31;;;25.43;25.94
14117;BME280;7137;51.436;6.544;2023-06-04T15:16:48;101593.47;;;24.82;26.47
14117;BME280;7137;51.436;6.544;2023-06-04T15:19:50;101585.91;;;24.76;27.40
14117;BME280;7137;51.436;6.544;2023-06-04T15:22:51;101584.22;;;24.75;26.96
14117;BME280;7137;51.436;6.544;2023-06-04T15:25:53;101581.06;;;24.70;26.17
14117;BME280;7137;51.436;6.544;2023-06-04T15:28:54;101584.84;;;24.79;26.76
14117;BME280;7137;51.436;6.544;2023-06-04T15:31:59;101579.88;;;24.85;26.12
14117;BME280;7137;51.436;6.544;2023-06-04T15:35:01;101581.88;;;24.60;26.86
14117;BME280;7137;51.436;6.544;2023-06-04T15:38:03;101577.97;;;24.52;27.43
14117;BME280;7137;51.436;6.544;2023-06-04T15:41:04;101580.78;;;24.62;27.68
14117;BME280;7137;51.436;6.544;2023-06-04T15:44:06;101578.13;;;24.73;27.01
14117;BME280;7137;51.436;6.544;2023-06-04T15:47:09;101573.41;;;24.88;26.65
14117;BME280;7137;51.436;6.544;2023-06-04T15:50:11;101570.16;;;24.84;27.75
14117;BME280;7137;51.436;6.544;2023-06-04T15:53:12;101570.84;;;24.64;27.14
14117;BME280;7137;51.436;6.544;2023-06-04T15:56:14;101568.16;;;24.75;27.53
14117;BME280;7137;51.436;6.544;2023-06-04T15:59:16;101557.13;;;24.69;27.32
14117;BME280;7137;51.436;6.544;2023-06-04T16:02:19;101567.97;;;24.78;28.02
14117;BME280;7137;51.436;6.544;2023-06-04T16:05:20;101560.75;;;24.68;27.14